createdAt,value
2022-12-17T00:00:51.596Z,77.37
2022-12-17T00:03:37.819Z,77.20
2022-12-17T00:06:23.550Z,77.40
2022-12-17T00:09:08.789Z,77.95
2022-12-17T00:11:54.175Z,78.06
2022-12-17T00:14:44.432Z,78.24
2022-12-17T00:17:29.757Z,77.95
2022-12-17T00:20:15.148Z,78.42
2022-12-17T00:23:00.464Z,79.03
2022-12-17T00:25:45.912Z,78.96
2022-12-17T00:28:31.701Z,78.78
2022-12-17T00:31:17.091Z,78.38
2022-12-17T00:34:02.428Z,78.00
2022-12-17T00:36:47.665Z,78.08
2022-12-17T00:39:33.002Z,78.61
2022-12-17T00:42:17.928Z,78.13
2022-12-17T00:45:03.281Z,77.50
2022-12-17T00:47:48.948Z,76.97
2022-12-17T00:50:35.724Z,77.97
2022-12-17T00:53:21.157Z,78.59
2022-12-17T00:56:06.387Z,78.51
2022-12-17T00:58:51.812Z,79.16
2022-12-17T01:01:37.216Z,79.42
2022-12-17T01:04:22.684Z,79.53
2022-12-17T01:07:08.730Z,79.46
2022-12-17T01:09:58.221Z,79.64
2022-12-17T01:12:43.449Z,80.14
2022-12-17T01:15:29.583Z,80.03
2022-12-17T01:18:14.805Z,79.81
2022-12-17T01:21:00.082Z,79.16
2022-12-17T01:23:45.462Z,79.10
2022-12-17T01:26:30.737Z,80.24
2022-12-17T01:29:16.458Z,80.45
2022-12-17T01:32:01.797Z,79.73
2022-12-17T01:34:47.191Z,80.26
2022-12-17T01:37:32.517Z,78.89
2022-12-17T01:40:17.857Z,78.26
2022-12-17T01:43:06.292Z,77.75
2022-12-17T01:46:00.685Z,78.07
2022-12-17T01:48:59.593Z,78.78
2022-12-17T01:51:45.440Z,78.12
2022-12-17T01:54:31.265Z,79.50
2022-12-17T01:57:17.160Z,79.75
2022-12-17T02:00:19.278Z,79.22
2022-12-17T02:03:05.033Z,78.76
2022-12-17T02:05:56.870Z,79.29
2022-12-17T02:08:54.235Z,80.00
2022-12-17T02:11:56.597Z,79.14
2022-12-17T02:14:50.164Z,79.22
2022-12-17T02:17:40.590Z,79.86
2022-12-17T02:20:49.745Z,79.97
2022-12-17T02:23:56.665Z,79.52
2022-12-17T02:26:54.508Z,78.90
2022-12-17T02:29:41.541Z,79.29
2022-12-17T02:32:28.292Z,79.87
2022-12-17T02:35:13.777Z,78.56
2022-12-17T02:38:05.368Z,78.16
2022-12-17T02:40:56.887Z,78.13
2022-12-17T02:43:43.042Z,78.02
2022-12-17T02:46:28.917Z,79.01
2022-12-17T02:49:27.840Z,78.44
2022-12-17T02:52:13.290Z,78.34
2022-12-17T02:54:58.583Z,77.69
2022-12-17T02:58:01.101Z,77.97
2022-12-17T03:00:46.474Z,77.20
2022-12-17T03:03:31.917Z,76.24
2022-12-17T03:06:17.417Z,76.75
2022-12-17T03:09:02.837Z,76.81
2022-12-17T03:11:48.875Z,78.36
2022-12-17T03:14:34.627Z,77.42
2022-12-17T03:17:19.954Z,76.68
2022-12-17T03:20:05.350Z,75.81
2022-12-17T03:22:50.832Z,76.79
2022-12-17T03:25:36.139Z,76.90
2022-12-17T03:28:23.354Z,77.07
2022-12-17T03:31:08.776Z,76.89
2022-12-17T03:33:54.144Z,77.31
2022-12-17T03:36:39.483Z,77.46
2022-12-17T03:39:24.804Z,77.59
2022-12-17T03:42:10.052Z,76.89
2022-12-17T03:44:55.445Z,77.69
2022-12-17T03:47:40.613Z,77.75
2022-12-17T03:50:26.434Z,77.09
2022-12-17T03:53:11.763Z,76.07
2022-12-17T03:55:57.006Z,76.64
2022-12-17T03:58:42.360Z,77.97
2022-12-17T04:01:27.752Z,77.79
2022-12-17T04:04:13.175Z,77.74
2022-12-17T04:06:58.605Z,77.70
2022-12-17T04:09:43.958Z,76.63
2022-12-17T04:12:29.217Z,77.05
2022-12-17T04:15:14.524Z,77.71
2022-12-17T04:18:00.141Z,77.87
2022-12-17T04:20:45.382Z,77.68
2022-12-17T04:23:30.744Z,77.89
2022-12-17T04:26:15.910Z,77.89
2022-12-17T04:29:01.067Z,78.42
2022-12-17T04:32:00.105Z,78.98
2022-12-17T04:34:45.392Z,79.34
2022-12-17T04:37:30.834Z,78.42
2022-12-17T04:40:16.079Z,78.94
2022-12-17T04:43:01.432Z,79.24
2022-12-17T04:45:46.669Z,79.41
2022-12-17T04:48:32.037Z,79.83
2022-12-17T04:51:17.316Z,78.89
2022-12-17T04:54:02.536Z,77.94
2022-12-17T04:56:47.940Z,77.66
2022-12-17T04:59:33.107Z,77.64
2022-12-17T05:02:18.651Z,78.26
2022-12-17T05:05:03.943Z,78.81
2022-12-17T05:07:49.401Z,79.46
2022-12-17T05:10:34.622Z,78.75
2022-12-17T05:13:20.542Z,77.72
2022-12-17T05:16:05.909Z,79.05
2022-12-17T05:18:51.154Z,79.08
2022-12-17T05:21:36.466Z,79.07
2022-12-17T05:24:21.846Z,78.39
2022-12-17T05:27:07.275Z,77.86
2022-12-17T05:29:52.536Z,77.88
2022-12-17T05:32:37.847Z,77.68
2022-12-17T05:35:27.612Z,78.15
2022-12-17T05:38:22.901Z,78.46
2022-12-17T05:41:08.286Z,79.56
2022-12-17T05:43:53.531Z,79.84
2022-12-17T05:46:38.857Z,79.18
2022-12-17T05:49:27.420Z,79.57
2022-12-17T05:52:12.692Z,79.29
2022-12-17T05:54:58.200Z,78.86
2022-12-17T05:57:43.641Z,78.15
2022-12-17T06:00:29.311Z,78.46
2022-12-17T06:03:22.747Z,78.77
2022-12-17T06:06:13.019Z,79.06
2022-12-17T06:08:58.360Z,79.71
2022-12-17T06:11:43.742Z,78.70
2022-12-17T06:14:29.167Z,79.18
2022-12-17T06:17:14.601Z,79.30
2022-12-17T06:19:59.782Z,79.93
2022-12-17T06:22:48.020Z,80.01
2022-12-17T06:25:33.275Z,80.24
2022-12-17T06:28:19.492Z,79.82
2022-12-17T06:31:12.113Z,79.38
2022-12-17T06:33:58.087Z,78.70
2022-12-17T06:36:43.934Z,79.64
2022-12-17T06:39:29.488Z,79.10
2022-12-17T06:42:14.785Z,79.20
2022-12-17T06:45:00.030Z,79.01
2022-12-17T06:47:45.177Z,78.63
2022-12-17T06:50:30.351Z,77.68
2022-12-17T06:53:23.696Z,77.93
2022-12-17T06:56:08.999Z,77.23
2022-12-17T06:58:54.413Z,76.85
2022-12-17T07:01:39.783Z,76.15
2022-12-17T07:04:25.322Z,76.19
2022-12-17T07:07:13.139Z,78.26
2022-12-17T07:09:59.149Z,77.82
2022-12-17T07:12:44.409Z,77.72
2022-12-17T07:15:29.813Z,76.97
2022-12-17T07:18:20.176Z,76.33
2022-12-17T07:21:06.624Z,77.11
2022-12-17T07:23:55.143Z,77.71
2022-12-17T07:26:40.256Z,76.98
2022-12-17T07:29:25.774Z,76.93
2022-12-17T07:32:11.062Z,76.16
2022-12-17T07:34:56.657Z,76.02
2022-12-17T07:37:49.508Z,77.34
2022-12-17T07:40:34.951Z,77.19
2022-12-17T07:43:20.233Z,77.69
2022-12-17T07:46:05.607Z,77.06
2022-12-17T07:48:50.914Z,77.43
2022-12-17T07:51:36.123Z,76.75
2022-12-17T07:54:21.475Z,75.86
2022-12-17T07:57:06.672Z,76.11
2022-12-17T07:59:52.105Z,76.42
2022-12-17T08:02:37.644Z,76.29
2022-12-17T08:05:23.165Z,77.04
2022-12-17T08:08:11.460Z,77.16
2022-12-17T08:10:56.709Z,77.79
2022-12-17T08:13:42.103Z,78.00
2022-12-17T08:16:27.503Z,77.15
2022-12-17T08:19:12.802Z,77.86
2022-12-17T08:21:58.138Z,76.75
2022-12-17T08:24:43.373Z,76.63
2022-12-17T08:27:28.756Z,77.08
2022-12-17T08:30:14.065Z,76.89
2022-12-17T08:32:59.389Z,76.46
2022-12-17T08:35:44.682Z,76.42
2022-12-17T08:38:30.081Z,75.10
2022-12-17T08:41:15.536Z,75.49
2022-12-17T08:44:00.917Z,76.57
2022-12-17T08:46:46.218Z,76.40
2022-12-17T08:49:31.460Z,75.97
2022-12-17T08:52:16.664Z,74.64
2022-12-17T08:55:01.955Z,74.13
2022-12-17T08:57:47.181Z,73.65
2022-12-17T09:00:33.078Z,75.61
2022-12-17T09:03:19.408Z,76.00
2022-12-17T09:06:05.401Z,76.70
2022-12-17T09:08:51.297Z,75.93
2022-12-17T09:11:36.662Z,75.80
2022-12-17T09:14:22.039Z,75.50
2022-12-17T09:17:07.672Z,76.22
2022-12-17T09:19:52.977Z,77.15
2022-12-17T09:22:38.567Z,76.81
2022-12-17T09:25:24.314Z,76.14
2022-12-17T09:28:09.674Z,74.93
2022-12-17T09:30:54.886Z,74.51
2022-12-17T09:33:42.844Z,75.00
2022-12-17T09:36:28.736Z,76.07
2022-12-17T09:39:14.313Z,76.43
2022-12-17T09:42:05.627Z,75.55
2022-12-17T09:45:03.831Z,75.30
2022-12-17T09:48:08.052Z,76.33
2022-12-17T09:50:53.468Z,75.63
2022-12-17T09:53:47.554Z,74.90
2022-12-17T09:56:33.953Z,74.49
2022-12-17T09:59:19.183Z,75.30
2022-12-17T10:02:04.734Z,74.24
2022-12-17T10:04:57.284Z,73.58
2022-12-17T10:07:45.246Z,75.06
2022-12-17T10:10:40.338Z,74.14
2022-12-17T10:13:37.798Z,73.36
2022-12-17T10:16:54.836Z,74.91
2022-12-17T10:19:47.792Z,76.88
2022-12-17T10:22:38.895Z,76.34
2022-12-17T10:25:38.182Z,75.61
2022-12-17T10:28:33.656Z,75.13
2022-12-17T10:31:20.036Z,74.70
2022-12-17T10:34:05.319Z,73.75
2022-12-17T10:36:50.700Z,75.23
2022-12-17T10:39:42.431Z,73.62
2022-12-17T10:42:47.866Z,73.95
2022-12-17T10:45:37.235Z,74.87
2022-12-17T10:48:22.847Z,73.88
2022-12-17T10:51:08.127Z,73.68
2022-12-17T10:53:53.586Z,73.62
2022-12-17T10:56:45.004Z,74.30
2022-12-17T10:59:31.911Z,75.20
2022-12-17T11:02:17.460Z,74.96
2022-12-17T11:05:12.065Z,73.92
2022-12-17T11:08:00.484Z,73.38
2022-12-17T11:10:48.858Z,73.18
2022-12-17T11:13:44.055Z,74.10
2022-12-17T11:16:37.204Z,73.69
2022-12-17T11:19:28.764Z,72.97
2022-12-17T11:22:17.143Z,73.14
2022-12-17T11:25:24.672Z,73.43
2022-12-17T11:28:22.540Z,73.13
2022-12-17T11:31:14.691Z,74.50
2022-12-17T11:34:14.787Z,74.45
2022-12-17T11:37:16.869Z,75.09
2022-12-17T11:40:11.258Z,75.54
2022-12-17T11:43:02.957Z,76.25
2022-12-17T11:45:53.003Z,76.06
2022-12-17T11:48:52.618Z,75.11
2022-12-17T11:51:45.339Z,74.39
2022-12-17T11:54:36.240Z,74.40
2022-12-17T11:57:43.654Z,74.75
2022-12-17T12:00:36.031Z,74.46
2022-12-17T12:03:43.751Z,75.32
2022-12-17T12:06:37.185Z,75.36
2022-12-17T12:09:31.751Z,74.38
2022-12-17T12:12:37.424Z,73.35
2022-12-17T12:15:50.193Z,74.10
2022-12-17T12:19:01.221Z,74.65
2022-12-17T12:21:53.926Z,75.30
2022-12-17T12:25:01.039Z,75.40
2022-12-17T12:27:55.476Z,75.24
2022-12-17T12:30:43.495Z,74.34
2022-12-17T12:33:41.821Z,73.52
2022-12-17T12:36:29.724Z,72.96
2022-12-17T12:39:18.285Z,73.25
2022-12-17T12:42:07.688Z,74.45
2022-12-17T12:44:55.932Z,74.26
2022-12-17T12:47:53.100Z,73.93
2022-12-17T12:50:43.411Z,73.92
2022-12-17T12:53:30.826Z,73.67
2022-12-17T12:56:16.127Z,74.07
2022-12-17T12:59:01.309Z,73.93
2022-12-17T13:01:57.152Z,73.69
2022-12-17T13:04:53.108Z,76.10
2022-12-17T13:07:24.539Z,74.29
2022-12-17T13:09:54.875Z,73.16
2022-12-17T13:12:45.816Z,73.01
2022-12-17T13:15:26.040Z,73.09
2022-12-17T13:18:05.388Z,73.96
2022-12-17T13:20:34.040Z,74.28
2022-12-17T13:23:09.808Z,73.29
2022-12-17T13:25:36.658Z,72.90
2022-12-17T13:28:03.862Z,73.29
2022-12-17T13:30:37.849Z,73.82
2022-12-17T13:33:44.881Z,74.43
2022-12-17T13:36:20.764Z,73.70
2022-12-17T13:38:59.037Z,73.35
2022-12-17T13:41:34.347Z,73.76
2022-12-17T13:44:18.366Z,73.28
2022-12-17T13:46:48.034Z,71.60
2022-12-17T13:49:26.267Z,72.43
2022-12-17T13:52:11.177Z,71.89
2022-12-17T13:54:38.398Z,71.67
2022-12-17T13:57:10.286Z,71.97
2022-12-17T13:59:37.052Z,71.82
2022-12-17T14:02:05.109Z,71.38
2022-12-17T14:04:32.598Z,73.56
2022-12-17T14:07:02.755Z,74.62
2022-12-17T14:09:39.884Z,73.83
2022-12-17T14:12:22.404Z,73.37
2022-12-17T14:15:00.183Z,73.68
2022-12-17T14:17:28.794Z,73.02
2022-12-17T14:20:05.778Z,74.39
2022-12-17T14:22:40.321Z,73.85
2022-12-17T14:25:16.835Z,72.93
2022-12-17T14:27:53.400Z,72.49
2022-12-17T14:30:21.720Z,72.33
2022-12-17T14:32:48.759Z,72.90
2022-12-17T14:35:27.314Z,73.88
2022-12-17T14:37:54.157Z,73.51
2022-12-17T14:40:21.486Z,73.75
2022-12-17T14:42:48.448Z,73.69
2022-12-17T14:45:14.973Z,73.85
2022-12-17T14:47:55.796Z,73.25
2022-12-17T14:50:22.560Z,74.23
2022-12-17T14:52:54.032Z,74.79
2022-12-17T14:55:22.625Z,74.89
2022-12-17T14:57:50.672Z,74.38
2022-12-17T15:00:17.477Z,73.17
2022-12-17T15:02:45.066Z,72.70
2022-12-17T15:05:15.922Z,72.24
2022-12-17T15:07:42.856Z,72.58
2022-12-17T15:10:14.922Z,74.40
2022-12-17T15:12:43.231Z,75.67
2022-12-17T15:15:14.758Z,74.23
2022-12-17T15:17:41.941Z,74.13
2022-12-17T15:20:16.908Z,74.65
2022-12-17T15:22:45.219Z,75.02
2022-12-17T15:25:17.123Z,75.10
2022-12-17T15:27:44.055Z,74.48
2022-12-17T15:30:15.739Z,74.43
2022-12-17T15:32:42.727Z,74.85
2022-12-17T15:35:11.583Z,73.76
2022-12-17T15:37:38.591Z,74.19
2022-12-17T15:40:06.788Z,74.57
2022-12-17T15:42:52.239Z,73.40
2022-12-17T15:45:19.589Z,72.58
2022-12-17T15:47:46.475Z,72.22
2022-12-17T15:50:13.140Z,71.27
2022-12-17T15:52:40.054Z,71.90
2022-12-17T15:55:07.201Z,71.68
2022-12-17T15:57:33.863Z,72.03
2022-12-17T16:00:00.577Z,72.08
2022-12-17T16:02:27.425Z,72.55
2022-12-17T16:04:54.231Z,72.11
2022-12-17T16:07:20.886Z,72.64
2022-12-17T16:09:47.616Z,74.00
2022-12-17T16:12:14.333Z,74.53
2022-12-17T16:14:41.032Z,73.67
2022-12-17T16:17:07.916Z,75.12
2022-12-17T16:19:34.603Z,75.38
2022-12-17T16:22:01.229Z,75.33
2022-12-17T16:24:27.986Z,76.33
2022-12-17T16:26:57.117Z,75.66
2022-12-17T16:29:26.181Z,74.90
2022-12-17T16:31:53.158Z,74.32
2022-12-17T16:34:19.871Z,74.66
2022-12-17T16:36:46.588Z,74.70
2022-12-17T16:39:16.606Z,74.53
2022-12-17T16:41:45.005Z,74.22
2022-12-17T16:44:11.759Z,73.57
2022-12-17T16:46:40.263Z,73.64
2022-12-17T16:49:09.145Z,73.22
2022-12-17T16:51:36.282Z,72.63
2022-12-17T16:54:09.108Z,72.51
2022-12-17T16:56:39.872Z,73.49
2022-12-17T16:59:08.415Z,74.52
2022-12-17T17:01:36.141Z,73.45
2022-12-17T17:04:04.825Z,73.58
2022-12-17T17:06:33.816Z,73.80
2022-12-17T17:09:04.365Z,73.67
2022-12-17T17:11:31.352Z,73.19
2022-12-17T17:13:58.382Z,73.05
2022-12-17T17:16:25.806Z,72.89
2022-12-17T17:18:53.673Z,72.92
2022-12-17T17:21:20.300Z,73.08
2022-12-17T17:23:59.862Z,73.44
2022-12-17T17:26:27.764Z,72.91
2022-12-17T17:28:54.681Z,72.75
2022-12-17T17:31:22.062Z,72.77
2022-12-17T17:33:50.584Z,72.98
2022-12-17T17:36:19.934Z,73.21
2022-12-17T17:38:47.563Z,72.58
2022-12-17T17:41:19.997Z,72.82
2022-12-17T17:43:47.036Z,73.04
2022-12-17T17:46:15.864Z,73.76
2022-12-17T17:48:44.280Z,74.30
2022-12-17T17:51:21.327Z,73.47
2022-12-17T17:53:57.007Z,72.83
2022-12-17T17:56:34.380Z,72.43
2022-12-17T17:59:06.034Z,71.65
2022-12-17T18:01:37.218Z,71.72
2022-12-17T18:04:05.540Z,71.85
2022-12-17T18:06:32.749Z,72.46
2022-12-17T18:09:00.077Z,72.90
2022-12-17T18:11:29.119Z,73.37
2022-12-17T18:13:57.332Z,73.10
2022-12-17T18:16:26.638Z,73.67
2022-12-17T18:18:55.315Z,73.40
2022-12-17T18:21:25.533Z,73.37
2022-12-17T18:23:56.773Z,73.29
2022-12-17T18:26:24.660Z,74.43
2022-12-17T18:28:51.551Z,73.82
2022-12-17T18:31:23.827Z,73.61
2022-12-17T18:33:52.853Z,72.83
2022-12-17T18:36:22.404Z,72.41
2022-12-17T18:38:55.731Z,72.46
2022-12-17T18:41:44.794Z,73.81
2022-12-17T18:44:13.228Z,74.23
2022-12-17T18:46:40.082Z,73.23
2022-12-17T18:49:10.566Z,73.16
2022-12-17T18:51:38.999Z,73.74
2022-12-17T18:54:09.525Z,73.73
2022-12-17T18:57:00.506Z,73.44
2022-12-17T18:59:29.060Z,72.90
2022-12-17T19:01:56.763Z,72.42
2022-12-17T19:04:24.497Z,72.77
2022-12-17T19:06:53.765Z,72.36
2022-12-17T19:09:21.808Z,74.60
2022-12-17T19:11:49.248Z,74.40
2022-12-17T19:14:17.452Z,73.55
2022-12-17T19:16:44.902Z,73.82
2022-12-17T19:19:12.702Z,72.71
2022-12-17T19:21:39.793Z,72.68
2022-12-17T19:24:08.201Z,73.07
2022-12-17T19:26:35.027Z,72.32
2022-12-17T19:29:02.305Z,72.14
2022-12-17T19:31:32.634Z,73.05
2022-12-17T19:34:02.564Z,73.29
2022-12-17T19:36:32.936Z,73.54
2022-12-17T19:39:02.988Z,72.97
2022-12-17T19:41:32.021Z,72.17
2022-12-17T19:44:01.603Z,71.60
2022-12-17T19:46:29.395Z,72.18
2022-12-17T19:48:57.294Z,72.90
2022-12-17T19:51:26.399Z,73.11
2022-12-17T19:53:54.217Z,72.33
2022-12-17T19:56:27.979Z,72.12
2022-12-17T19:58:57.177Z,71.67
2022-12-17T20:01:35.440Z,71.97
2022-12-17T20:04:02.662Z,72.22
2022-12-17T20:06:31.796Z,72.61
2022-12-17T20:08:59.414Z,72.60
2022-12-17T20:11:36.025Z,72.10
2022-12-17T20:14:13.713Z,72.70
2022-12-17T20:16:49.388Z,72.89
2022-12-17T20:19:18.563Z,73.29
2022-12-17T20:21:45.388Z,72.40
2022-12-17T20:24:12.444Z,73.10
2022-12-17T20:26:39.509Z,73.90
2022-12-17T20:29:07.198Z,74.10
2022-12-17T20:31:34.476Z,73.54
2022-12-17T20:34:02.278Z,72.79
2022-12-17T20:36:29.655Z,72.62
2022-12-17T20:38:56.607Z,72.77
2022-12-17T20:41:25.462Z,72.84
2022-12-17T20:43:53.072Z,72.65
2022-12-17T20:46:20.889Z,72.19
2022-12-17T20:48:47.892Z,72.87
2022-12-17T20:51:23.093Z,73.13
2022-12-17T20:53:50.320Z,73.29
2022-12-17T20:56:19.583Z,72.09
2022-12-17T20:58:46.680Z,72.12
2022-12-17T21:01:19.912Z,72.38
2022-12-17T21:03:47.771Z,72.75
2022-12-17T21:06:38.547Z,72.54
2022-12-17T21:09:06.349Z,72.49
2022-12-17T21:11:34.489Z,72.02
2022-12-17T21:14:10.140Z,74.07
2022-12-17T21:16:39.276Z,73.59
2022-12-17T21:19:08.906Z,73.07
2022-12-17T21:21:39.350Z,72.17
2022-12-17T21:24:06.784Z,72.02
2022-12-17T21:26:39.802Z,71.80
2022-12-17T21:29:08.405Z,72.39
2022-12-17T21:31:44.269Z,72.39
2022-12-17T21:34:14.294Z,72.43
2022-12-17T21:36:41.323Z,71.66
2022-12-17T21:39:09.888Z,72.43
2022-12-17T21:41:42.330Z,71.99
2022-12-17T21:44:13.144Z,71.97
2022-12-17T21:46:42.457Z,71.53
2022-12-17T21:49:09.986Z,70.81
2022-12-17T21:51:36.949Z,71.74
2022-12-17T21:54:08.741Z,72.25
2022-12-17T21:56:37.258Z,72.75
2022-12-17T21:59:04.249Z,73.14
2022-12-17T22:01:33.306Z,72.73
2022-12-17T22:04:02.049Z,72.46
2022-12-17T22:06:37.623Z,71.24
2022-12-17T22:09:16.766Z,71.09
2022-12-17T22:12:13.015Z,71.08
2022-12-17T22:14:39.681Z,71.28
2022-12-17T22:17:06.479Z,70.72
2022-12-17T22:19:33.633Z,70.50
2022-12-17T22:22:00.629Z,70.48
2022-12-17T22:24:29.956Z,69.62
2022-12-17T22:27:03.363Z,69.67
2022-12-17T22:29:49.198Z,70.00
2022-12-17T22:32:34.358Z,70.96
2022-12-17T22:35:49.919Z,70.52
2022-12-17T22:40:07.632Z,70.24
2022-12-17T22:44:33.645Z,69.88
2022-12-17T22:44:42.607Z,70.14
2022-12-17T22:46:19.344Z,70.87
2022-12-17T22:48:46.552Z,70.90
2022-12-17T22:51:22.777Z,70.69
2022-12-17T22:54:00.938Z,71.24
2022-12-17T22:56:46.291Z,71.22
2022-12-17T22:59:16.903Z,70.88
2022-12-17T23:01:44.283Z,70.87
2022-12-17T23:04:16.201Z,71.44
2022-12-17T23:06:48.070Z,72.45
2022-12-17T23:09:16.041Z,72.35
2022-12-17T23:11:42.831Z,71.73
2022-12-17T23:14:09.544Z,71.97
2022-12-17T23:16:38.455Z,71.94
2022-12-17T23:19:05.710Z,71.82
2022-12-17T23:21:35.982Z,71.77
2022-12-17T23:24:04.400Z,71.14
2022-12-17T23:26:33.582Z,71.29
2022-12-17T23:29:02.889Z,70.69
2022-12-17T23:31:33.487Z,70.50
2022-12-17T23:34:00.457Z,70.13
2022-12-17T23:36:27.574Z,70.57
2022-12-17T23:38:56.429Z,69.59
2022-12-17T23:41:26.999Z,70.87
2022-12-17T23:43:54.004Z,70.71
2022-12-17T23:46:21.384Z,70.68
2022-12-17T23:48:48.486Z,71.18
2022-12-17T23:51:17.432Z,70.77
2022-12-17T23:53:44.164Z,71.70
2022-12-17T23:56:22.540Z,71.90
2022-12-17T23:58:53.108Z,71.92
